createdAt,value
2023-05-17T00:00:17.720Z,75.30
2023-05-17T00:02:49.155Z,76.71
2023-05-17T00:05:20.834Z,78.05
2023-05-17T00:07:52.601Z,75.24
2023-05-17T00:10:23.976Z,76.08
2023-05-17T00:12:55.399Z,76.27
2023-05-17T00:15:27.089Z,76.17
2023-05-17T00:17:58.793Z,75.56
2023-05-17T00:20:30.364Z,74.99
2023-05-17T00:23:03.146Z,76.02
2023-05-17T00:25:35.547Z,79.46
2023-05-17T00:28:06.968Z,75.94
2023-05-17T00:30:38.377Z,76.72
2023-05-17T00:33:10.117Z,77.18
2023-05-17T00:35:41.566Z,77.14
2023-05-17T00:38:15.172Z,76.76
2023-05-17T00:40:46.604Z,77.43
2023-05-17T00:43:18.106Z,75.30
2023-05-17T00:45:51.885Z,73.96
2023-05-17T00:48:26.660Z,76.49
2023-05-17T00:51:00.094Z,75.48
2023-05-17T00:53:31.650Z,74.70
2023-05-17T00:56:05.097Z,74.43
2023-05-17T00:58:37.131Z,76.17
2023-05-17T01:01:09.128Z,75.31
2023-05-17T01:03:40.737Z,77.14
2023-05-17T01:06:13.253Z,76.79
2023-05-17T01:08:45.249Z,76.39
2023-05-17T01:11:36.336Z,76.79
2023-05-17T01:14:26.660Z,77.45
2023-05-17T01:17:02.704Z,76.52
2023-05-17T01:19:43.774Z,76.54
2023-05-17T01:22:33.243Z,76.75
2023-05-17T01:25:10.846Z,78.47
2023-05-17T01:27:45.268Z,78.67
2023-05-17T01:30:19.642Z,78.46
2023-05-17T01:32:53.684Z,78.50
2023-05-17T01:35:25.472Z,78.21
2023-05-17T01:37:56.991Z,79.12
2023-05-17T01:40:29.592Z,79.51
2023-05-17T01:43:24.281Z,80.19
2023-05-17T01:46:13.714Z,80.88
2023-05-17T01:48:50.010Z,80.72
2023-05-17T01:51:24.063Z,81.32
2023-05-17T01:54:02.159Z,80.20
2023-05-17T01:56:34.694Z,80.82
2023-05-17T01:59:07.399Z,81.99
2023-05-17T02:01:39.543Z,81.24
2023-05-17T02:04:11.232Z,80.90
2023-05-17T02:06:43.709Z,80.59
2023-05-17T02:09:15.143Z,80.25
2023-05-17T02:11:46.755Z,80.96
2023-05-17T02:14:19.485Z,80.83
2023-05-17T02:16:50.871Z,80.67
2023-05-17T02:19:23.709Z,81.77
2023-05-17T02:21:55.726Z,80.80
2023-05-17T02:24:28.328Z,81.23
2023-05-17T02:26:59.769Z,81.10
2023-05-17T02:29:31.809Z,80.81
2023-05-17T02:32:03.833Z,80.81
2023-05-17T02:34:35.312Z,81.86
2023-05-17T02:37:07.016Z,80.28
2023-05-17T02:39:39.662Z,80.17
2023-05-17T02:42:11.221Z,80.04
2023-05-17T02:44:42.681Z,80.79
2023-05-17T02:47:15.134Z,79.26
2023-05-17T02:49:49.968Z,77.77
2023-05-17T02:52:21.342Z,78.68
2023-05-17T02:54:52.812Z,77.20
2023-05-17T02:57:24.523Z,77.27
2023-05-17T02:59:55.903Z,77.84
2023-05-17T03:02:27.445Z,77.04
2023-05-17T03:04:58.881Z,76.75
2023-05-17T03:07:30.764Z,77.05
2023-05-17T03:10:02.483Z,76.74
2023-05-17T03:12:33.943Z,76.92
2023-05-17T03:15:05.588Z,77.41
2023-05-17T03:17:37.053Z,76.67
2023-05-17T03:20:10.194Z,75.74
2023-05-17T03:22:41.597Z,75.91
2023-05-17T03:25:14.035Z,76.71
2023-05-17T03:27:45.969Z,76.62
2023-05-17T03:30:17.875Z,77.18
2023-05-17T03:32:49.483Z,77.52
2023-05-17T03:35:24.252Z,77.00
2023-05-17T03:37:56.053Z,77.35
2023-05-17T03:40:27.799Z,76.82
2023-05-17T03:42:59.380Z,76.10
2023-05-17T03:45:31.110Z,75.41
2023-05-17T03:48:03.944Z,77.26
2023-05-17T03:50:35.541Z,76.70
2023-05-17T03:53:07.458Z,77.11
2023-05-17T03:55:38.907Z,74.69
2023-05-17T03:58:11.069Z,75.17
2023-05-17T04:00:42.490Z,74.45
2023-05-17T04:03:13.992Z,75.39
2023-05-17T04:05:46.607Z,75.40
2023-05-17T04:08:19.103Z,74.71
2023-05-17T04:10:50.480Z,74.33
2023-05-17T04:13:22.015Z,75.62
2023-05-17T04:15:53.688Z,73.63
2023-05-17T04:18:25.242Z,73.96
2023-05-17T04:20:56.870Z,73.78
2023-05-17T04:23:29.874Z,73.24
2023-05-17T04:26:01.643Z,74.95
2023-05-17T04:28:34.996Z,74.07
2023-05-17T04:31:07.323Z,74.28
2023-05-17T04:33:38.793Z,72.90
2023-05-17T04:36:10.227Z,72.44
2023-05-17T04:38:41.757Z,74.31
2023-05-17T04:41:13.620Z,74.07
2023-05-17T04:43:45.385Z,73.85
2023-05-17T04:46:16.801Z,73.68
2023-05-17T04:48:48.363Z,73.67
2023-05-17T04:51:19.852Z,71.53
2023-05-17T04:53:51.457Z,72.52
2023-05-17T04:56:22.905Z,72.66
2023-05-17T04:58:54.276Z,71.37
2023-05-17T05:01:25.698Z,71.76
2023-05-17T05:03:58.101Z,71.03
2023-05-17T05:06:29.522Z,72.29
2023-05-17T05:09:01.448Z,71.60
2023-05-17T05:11:33.233Z,70.60
2023-05-17T05:14:05.012Z,71.56
2023-05-17T05:16:36.718Z,72.56
2023-05-17T05:19:09.476Z,69.92
2023-05-17T05:21:41.012Z,69.94
2023-05-17T05:24:12.561Z,69.37
2023-05-17T05:26:44.853Z,69.60
2023-05-17T05:29:16.223Z,68.76
2023-05-17T05:31:47.771Z,69.50
2023-05-17T05:34:19.143Z,68.79
2023-05-17T05:36:50.901Z,69.12
2023-05-17T05:39:22.983Z,69.54
2023-05-17T05:41:54.417Z,68.75
2023-05-17T05:44:26.078Z,67.94
2023-05-17T05:46:57.632Z,67.78
2023-05-17T05:49:29.167Z,66.93
2023-05-17T05:52:00.894Z,68.68
2023-05-17T05:54:32.635Z,69.21
2023-05-17T05:57:04.209Z,66.84
2023-05-17T05:59:35.593Z,66.86
2023-05-17T06:02:07.359Z,66.49
2023-05-17T06:04:45.356Z,65.42
2023-05-17T06:07:17.491Z,66.14
2023-05-17T06:09:49.464Z,67.06
2023-05-17T06:12:21.081Z,66.46
2023-05-17T06:14:52.466Z,66.12
2023-05-17T06:17:24.045Z,65.76
2023-05-17T06:19:55.652Z,66.61
2023-05-17T06:22:27.232Z,65.17
2023-05-17T06:24:58.687Z,66.97
2023-05-17T06:27:31.976Z,65.45
2023-05-17T06:30:07.138Z,66.00
2023-05-17T06:32:39.739Z,67.44
2023-05-17T06:35:11.266Z,66.62
2023-05-17T06:37:43.070Z,66.62
2023-05-17T06:40:16.747Z,65.68
2023-05-17T06:42:48.576Z,65.91
2023-05-17T06:45:20.329Z,66.17
2023-05-17T06:47:54.180Z,67.24
2023-05-17T06:50:28.696Z,64.95
2023-05-17T06:53:00.500Z,66.43
2023-05-17T06:55:32.291Z,65.72
2023-05-17T06:58:06.372Z,65.58
2023-05-17T07:00:37.785Z,66.14
2023-05-17T07:03:10.108Z,65.68
2023-05-17T07:05:41.748Z,66.23
2023-05-17T07:08:13.269Z,66.31
2023-05-17T07:10:44.742Z,65.81
2023-05-17T07:13:16.288Z,66.29
2023-05-17T07:15:47.777Z,65.77
2023-05-17T07:18:19.299Z,64.22
2023-05-17T07:20:50.805Z,64.27
2023-05-17T07:23:22.348Z,64.98
2023-05-17T07:25:53.818Z,64.52
2023-05-17T07:28:25.321Z,63.63
2023-05-17T07:30:58.220Z,66.68
2023-05-17T07:33:29.629Z,63.75
2023-05-17T07:36:01.316Z,64.75
2023-05-17T07:38:35.460Z,65.17
2023-05-17T07:41:10.575Z,64.14
2023-05-17T07:43:42.287Z,65.49
2023-05-17T07:46:13.879Z,64.43
2023-05-17T07:48:45.737Z,66.64
2023-05-17T07:51:17.581Z,64.57
2023-05-17T07:53:49.423Z,65.81
2023-05-17T07:56:20.952Z,63.70
2023-05-17T07:58:52.859Z,63.98
2023-05-17T08:01:25.172Z,63.77
2023-05-17T08:03:56.662Z,63.12
2023-05-17T08:06:28.163Z,61.69
2023-05-17T08:09:00.886Z,63.10
2023-05-17T08:11:35.457Z,62.53
2023-05-17T08:14:06.911Z,61.59
2023-05-17T08:16:41.091Z,60.20
2023-05-17T08:19:13.444Z,60.04
2023-05-17T08:21:46.445Z,60.41
2023-05-17T08:24:18.081Z,60.49
2023-05-17T08:26:49.699Z,60.46
2023-05-17T08:29:21.166Z,61.71
2023-05-17T08:31:54.231Z,60.95
2023-05-17T08:34:26.252Z,60.16
2023-05-17T08:36:58.935Z,59.76
2023-05-17T08:39:31.831Z,59.40
2023-05-17T08:42:07.118Z,57.31
2023-05-17T08:44:38.985Z,55.26
2023-05-17T08:47:11.304Z,56.74
2023-05-17T08:49:43.158Z,55.09
2023-05-17T08:52:16.140Z,56.04
2023-05-17T08:54:48.676Z,54.59
2023-05-17T08:57:20.353Z,56.14
2023-05-17T08:59:53.494Z,56.21
2023-05-17T09:02:25.919Z,55.89
2023-05-17T09:04:57.649Z,55.48
2023-05-17T09:07:29.200Z,55.58
2023-05-17T09:10:00.752Z,55.10
2023-05-17T09:12:35.411Z,52.98
2023-05-17T09:15:20.083Z,53.96
2023-05-17T09:17:52.517Z,53.79
2023-05-17T09:20:24.943Z,55.13
2023-05-17T09:22:57.809Z,52.89
2023-05-17T09:25:29.683Z,52.86
2023-05-17T09:28:02.858Z,50.22
2023-05-17T09:30:38.074Z,51.33
2023-05-17T09:33:13.970Z,50.29
2023-05-17T09:35:48.913Z,49.51
2023-05-17T09:38:27.606Z,50.96
2023-05-17T09:41:02.615Z,51.64
2023-05-17T09:43:34.396Z,50.74
2023-05-17T09:46:05.769Z,50.53
2023-05-17T09:48:38.881Z,49.12
2023-05-17T09:51:10.937Z,49.65
2023-05-17T09:53:42.792Z,49.12
2023-05-17T09:56:14.810Z,50.46
2023-05-17T09:58:46.352Z,48.29
2023-05-17T10:01:19.424Z,49.12
2023-05-17T10:03:51.495Z,50.77
2023-05-17T10:06:38.355Z,51.00
2023-05-17T10:09:15.975Z,45.82
2023-05-17T10:11:47.623Z,41.43
2023-05-17T10:14:31.776Z,43.99
2023-05-17T10:17:03.684Z,43.32
2023-05-17T10:19:35.733Z,45.17
2023-05-17T10:22:21.929Z,48.21
2023-05-17T10:24:56.006Z,48.21
2023-05-17T10:27:28.373Z,50.30
2023-05-17T10:30:00.195Z,49.02
2023-05-17T10:32:33.186Z,49.55
2023-05-17T10:35:12.035Z,49.71
2023-05-17T10:37:43.866Z,49.98
2023-05-17T10:40:17.514Z,48.95
2023-05-17T10:42:54.960Z,47.33
2023-05-17T10:45:28.508Z,50.02
2023-05-17T10:48:11.716Z,47.79
2023-05-17T10:50:54.352Z,48.19
2023-05-17T10:53:26.971Z,43.49
2023-05-17T10:55:58.746Z,44.95
2023-05-17T10:58:31.371Z,45.40
2023-05-17T11:01:07.645Z,47.06
2023-05-17T11:03:39.846Z,44.94
2023-05-17T11:06:25.205Z,45.37
2023-05-17T11:09:08.522Z,40.87
2023-05-17T11:12:00.266Z,42.80
2023-05-17T11:14:58.053Z,41.95
2023-05-17T11:17:46.533Z,41.41
2023-05-17T11:20:24.541Z,40.57
2023-05-17T11:23:00.170Z,40.28
2023-05-17T11:25:36.403Z,42.67
2023-05-17T11:28:09.464Z,43.68
2023-05-17T11:30:42.152Z,42.88
2023-05-17T11:33:29.252Z,41.98
2023-05-17T11:36:15.857Z,41.87
2023-05-17T11:38:55.213Z,41.82
2023-05-17T11:41:38.018Z,41.48
2023-05-17T11:44:10.424Z,42.73
2023-05-17T11:46:44.001Z,43.32
2023-05-17T11:49:26.876Z,41.84
2023-05-17T11:52:06.184Z,42.30
2023-05-17T11:54:38.778Z,43.10
2023-05-17T11:57:11.764Z,43.22
2023-05-17T11:59:43.494Z,42.51
2023-05-17T12:02:29.838Z,42.47
2023-05-17T12:05:01.403Z,41.30
2023-05-17T12:07:34.945Z,42.65
2023-05-17T12:10:07.088Z,42.66
2023-05-17T12:12:38.596Z,43.00
2023-05-17T12:15:12.000Z,43.37
2023-05-17T12:17:45.496Z,44.23
2023-05-17T12:20:17.360Z,42.23
2023-05-17T12:22:53.451Z,44.17
2023-05-17T12:25:29.624Z,44.68
2023-05-17T12:28:22.447Z,43.78
2023-05-17T12:30:58.052Z,40.91
2023-05-17T12:33:31.502Z,41.59
2023-05-17T12:36:04.139Z,42.56
2023-05-17T12:38:36.404Z,42.85
2023-05-17T12:41:08.776Z,41.32
2023-05-17T12:43:40.657Z,43.39
2023-05-17T12:46:13.631Z,41.42
2023-05-17T12:48:45.305Z,41.92
2023-05-17T12:51:16.785Z,39.54
2023-05-17T12:53:54.089Z,39.23
2023-05-17T12:56:28.864Z,40.14
2023-05-17T12:59:04.744Z,38.01
2023-05-17T13:01:40.304Z,40.08
2023-05-17T13:04:12.387Z,41.23
2023-05-17T13:06:54.179Z,39.18
2023-05-17T13:09:26.860Z,38.41
2023-05-17T13:11:59.404Z,39.02
2023-05-17T13:14:37.190Z,38.72
2023-05-17T13:17:09.604Z,39.46
2023-05-17T13:19:41.638Z,40.15
2023-05-17T13:22:13.811Z,38.70
2023-05-17T13:24:45.347Z,39.50
2023-05-17T13:27:17.221Z,38.66
2023-05-17T13:29:48.603Z,36.35
2023-05-17T13:32:21.139Z,36.52
2023-05-17T13:34:52.570Z,37.80
2023-05-17T13:37:24.499Z,40.41
2023-05-17T13:39:56.877Z,39.94
2023-05-17T13:42:29.026Z,39.19
2023-05-17T13:45:02.520Z,39.91
2023-05-17T13:47:35.108Z,38.68
2023-05-17T13:50:06.993Z,37.96
2023-05-17T13:52:38.695Z,39.91
2023-05-17T13:55:10.265Z,40.56
2023-05-17T13:57:43.789Z,39.45
2023-05-17T14:00:16.299Z,39.72
2023-05-17T14:02:50.266Z,41.25
2023-05-17T14:05:21.967Z,41.08
2023-05-17T14:07:53.548Z,40.52
2023-05-17T14:10:24.992Z,39.97
2023-05-17T14:12:56.669Z,41.06
2023-05-17T14:15:30.378Z,39.90
2023-05-17T14:18:02.185Z,40.86
2023-05-17T14:20:38.016Z,40.61
2023-05-17T14:23:09.492Z,40.32
2023-05-17T14:25:43.667Z,40.77
2023-05-17T14:28:19.536Z,41.48
2023-05-17T14:30:52.430Z,40.53
2023-05-17T14:33:24.185Z,42.27
2023-05-17T14:35:55.902Z,41.47
2023-05-17T14:38:28.717Z,43.10
2023-05-17T14:41:03.438Z,42.26
2023-05-17T14:43:34.933Z,43.19
2023-05-17T14:46:06.862Z,42.81
2023-05-17T14:48:38.420Z,43.41
2023-05-17T14:51:09.907Z,43.08
2023-05-17T14:53:41.431Z,42.97
2023-05-17T14:56:15.136Z,41.34
2023-05-17T14:58:47.392Z,38.44
2023-05-17T15:01:20.747Z,38.40
2023-05-17T15:03:52.303Z,36.85
2023-05-17T15:06:25.881Z,35.80
2023-05-17T15:08:57.455Z,31.53
2023-05-17T15:11:29.421Z,28.42
2023-05-17T15:14:01.932Z,25.44
2023-05-17T15:16:34.484Z,26.04
2023-05-17T15:19:06.591Z,23.73
2023-05-17T15:21:39.389Z,23.36
2023-05-17T15:24:13.329Z,24.37
2023-05-17T15:26:46.162Z,26.48
2023-05-17T15:29:17.657Z,28.90
2023-05-17T15:31:49.149Z,31.64
2023-05-17T15:34:20.712Z,34.03
2023-05-17T15:36:52.868Z,36.03
2023-05-17T15:39:24.414Z,37.48
2023-05-17T15:41:56.002Z,38.04
2023-05-17T15:44:27.427Z,38.21
2023-05-17T15:47:01.501Z,40.50
2023-05-17T15:49:35.291Z,40.16
2023-05-17T15:52:06.881Z,40.34
2023-05-17T15:54:38.686Z,39.79
2023-05-17T15:57:10.069Z,40.87
2023-05-17T15:59:41.620Z,40.70
2023-05-17T16:02:13.317Z,41.50
2023-05-17T16:04:44.891Z,42.02
2023-05-17T16:07:17.229Z,43.67
2023-05-17T16:09:49.177Z,44.34
2023-05-17T16:12:23.509Z,44.11
2023-05-17T16:14:54.972Z,43.90
2023-05-17T16:17:26.889Z,43.46
2023-05-17T16:19:58.435Z,44.13
2023-05-17T16:22:29.941Z,44.69
2023-05-17T16:25:01.315Z,45.08
2023-05-17T16:27:32.680Z,45.03
2023-05-17T16:30:04.433Z,45.38
2023-05-17T16:32:35.980Z,45.80
2023-05-17T16:35:07.758Z,45.74
2023-05-17T16:37:39.478Z,45.86
2023-05-17T16:40:11.072Z,46.73
2023-05-17T16:42:42.931Z,46.96
2023-05-17T16:45:14.424Z,46.74
2023-05-17T16:47:46.033Z,46.68
2023-05-17T16:50:17.946Z,46.86
2023-05-17T16:52:51.009Z,47.73
2023-05-17T16:55:24.880Z,47.53
2023-05-17T16:57:56.759Z,46.94
2023-05-17T17:00:30.032Z,47.04
2023-05-17T17:03:01.917Z,47.83
2023-05-17T17:05:34.964Z,47.94
2023-05-17T17:08:07.399Z,49.59
2023-05-17T17:10:38.925Z,49.17
2023-05-17T17:13:10.414Z,50.31
2023-05-17T17:15:42.342Z,49.75
2023-05-17T17:18:14.142Z,50.31
2023-05-17T17:20:51.302Z,49.82
2023-05-17T17:23:22.882Z,50.19
2023-05-17T17:25:54.539Z,50.87
2023-05-17T17:28:26.097Z,51.27
2023-05-17T17:30:58.876Z,51.11
2023-05-17T17:33:30.285Z,52.00
2023-05-17T17:36:07.761Z,51.80
2023-05-17T17:38:39.234Z,52.38
2023-05-17T17:41:10.742Z,52.77
2023-05-17T17:43:43.103Z,53.33
2023-05-17T17:46:14.556Z,53.57
2023-05-17T17:48:46.012Z,53.43
2023-05-17T17:51:17.692Z,52.57
2023-05-17T17:53:49.078Z,52.80
2023-05-17T17:56:23.749Z,53.04
2023-05-17T17:58:57.162Z,53.09
2023-05-17T18:01:31.026Z,52.59
2023-05-17T18:04:04.764Z,51.74
2023-05-17T18:06:37.031Z,51.69
2023-05-17T18:09:10.567Z,51.78
2023-05-17T18:11:42.285Z,52.63
2023-05-17T18:14:15.261Z,53.77
2023-05-17T18:16:46.929Z,53.76
2023-05-17T18:19:18.955Z,54.26
2023-05-17T18:21:51.047Z,55.05
2023-05-17T18:24:22.500Z,54.79
2023-05-17T18:26:53.925Z,54.25
2023-05-17T18:29:25.629Z,54.93
2023-05-17T18:32:00.440Z,54.35
2023-05-17T18:34:33.110Z,54.42
2023-05-17T18:37:05.976Z,54.68
2023-05-17T18:39:39.452Z,55.17
2023-05-17T18:42:15.438Z,55.06
2023-05-17T18:44:47.203Z,55.01
2023-05-17T18:47:19.588Z,55.26
2023-05-17T18:49:53.127Z,55.61
2023-05-17T18:52:24.584Z,56.11
2023-05-17T18:54:56.027Z,56.30
2023-05-17T18:57:27.463Z,56.54
2023-05-17T19:00:00.152Z,56.63
2023-05-17T19:02:31.688Z,57.12
2023-05-17T19:05:03.318Z,57.43
2023-05-17T19:07:35.510Z,58.03
2023-05-17T19:10:07.851Z,57.78
2023-05-17T19:12:39.351Z,57.56
2023-05-17T19:15:11.705Z,58.24
2023-05-17T19:17:43.285Z,58.60
2023-05-17T19:20:14.800Z,58.47
2023-05-17T19:22:47.266Z,58.90
2023-05-17T19:25:20.846Z,59.47
2023-05-17T19:27:52.920Z,59.91
2023-05-17T19:30:25.217Z,59.01
2023-05-17T19:32:57.042Z,59.00
2023-05-17T19:35:28.565Z,59.08
2023-05-17T19:38:00.591Z,59.43
2023-05-17T19:40:33.035Z,59.92
2023-05-17T19:43:05.730Z,59.51
2023-05-17T19:45:37.436Z,59.61
2023-05-17T19:48:08.944Z,60.50
2023-05-17T19:50:41.865Z,60.07
2023-05-17T19:53:13.495Z,60.70
2023-05-17T19:55:45.007Z,60.93
2023-05-17T19:58:18.511Z,60.64
2023-05-17T20:00:49.930Z,60.47
2023-05-17T20:03:22.478Z,60.36
2023-05-17T20:05:55.501Z,60.83
2023-05-17T20:08:27.236Z,60.57
2023-05-17T20:11:01.301Z,60.58
2023-05-17T20:13:34.172Z,61.82
2023-05-17T20:16:12.308Z,61.54
2023-05-17T20:18:44.367Z,61.87
2023-05-17T20:21:19.160Z,62.04
2023-05-17T20:23:56.913Z,62.21
2023-05-17T20:26:31.860Z,62.24
2023-05-17T20:29:05.667Z,62.35
2023-05-17T20:31:37.197Z,62.42
2023-05-17T20:34:08.637Z,62.36
2023-05-17T20:36:41.738Z,62.53
2023-05-17T20:39:16.199Z,62.68
2023-05-17T20:41:55.325Z,63.00
2023-05-17T20:44:26.747Z,62.85
2023-05-17T20:46:58.420Z,62.72
2023-05-17T20:49:29.890Z,63.33
2023-05-17T20:52:02.930Z,63.39
2023-05-17T20:54:34.422Z,63.61
2023-05-17T20:57:08.798Z,64.19
2023-05-17T20:59:40.914Z,64.13
2023-05-17T21:02:12.341Z,64.59
2023-05-17T21:04:45.103Z,64.80
2023-05-17T21:07:19.999Z,64.67
2023-05-17T21:09:51.559Z,65.15
2023-05-17T21:12:24.065Z,64.78
2023-05-17T21:15:14.444Z,64.51
2023-05-17T21:17:47.505Z,64.95
2023-05-17T21:20:19.419Z,64.90
2023-05-17T21:22:52.984Z,65.22
2023-05-17T21:25:24.549Z,65.44
2023-05-17T21:27:55.909Z,65.46
2023-05-17T21:30:27.358Z,65.79
2023-05-17T21:33:01.213Z,66.64
2023-05-17T21:35:32.835Z,66.61
2023-05-17T21:38:05.259Z,66.57
2023-05-17T21:40:37.234Z,66.69
2023-05-17T21:43:09.909Z,66.61
2023-05-17T21:45:41.845Z,67.08
2023-05-17T21:48:13.360Z,67.74
2023-05-17T21:50:45.084Z,67.11
2023-05-17T21:53:16.660Z,67.93
2023-05-17T21:56:01.395Z,68.04
2023-05-17T21:58:33.743Z,67.99
2023-05-17T22:01:05.357Z,67.83
2023-05-17T22:03:36.814Z,67.79
2023-05-17T22:06:08.435Z,68.29
2023-05-17T22:08:42.496Z,68.37
2023-05-17T22:11:14.102Z,68.66
2023-05-17T22:13:46.720Z,68.37
2023-05-17T22:16:19.263Z,68.33
2023-05-17T22:18:53.478Z,69.26
2023-05-17T22:21:25.083Z,69.63
2023-05-17T22:23:56.660Z,69.86
2023-05-17T22:26:28.105Z,70.19
2023-05-17T22:28:59.616Z,70.45
2023-05-17T22:31:31.644Z,70.29
2023-05-17T22:34:03.618Z,70.06
2023-05-17T22:36:35.010Z,69.53
2023-05-17T22:39:06.405Z,69.04
2023-05-17T22:41:37.789Z,68.13
2023-05-17T22:44:09.164Z,67.64
2023-05-17T22:46:42.040Z,67.79
2023-05-17T22:49:13.566Z,67.79
2023-05-17T22:51:44.946Z,67.48
2023-05-17T22:54:16.352Z,67.58
2023-05-17T22:56:47.729Z,68.19
2023-05-17T22:59:19.170Z,68.13
2023-05-17T23:01:50.801Z,67.93
2023-05-17T23:04:26.164Z,67.67
2023-05-17T23:07:03.741Z,67.21
2023-05-17T23:09:40.310Z,67.18
2023-05-17T23:12:13.953Z,66.36
2023-05-17T23:14:45.564Z,66.85
2023-05-17T23:17:17.169Z,66.05
2023-05-17T23:19:48.562Z,66.75
2023-05-17T23:22:20.001Z,66.45
2023-05-17T23:24:51.448Z,66.88
2023-05-17T23:27:22.969Z,66.95
2023-05-17T23:29:55.117Z,67.59
2023-05-17T23:32:26.510Z,66.91
2023-05-17T23:35:04.254Z,67.34
2023-05-17T23:37:36.541Z,67.53
2023-05-17T23:40:11.365Z,68.27
2023-05-17T23:42:42.760Z,68.66
2023-05-17T23:45:14.277Z,68.91
2023-05-17T23:47:47.519Z,69.57
2023-05-17T23:50:19.007Z,69.46
2023-05-17T23:52:50.387Z,69.88
2023-05-17T23:55:22.668Z,70.53
2023-05-17T23:57:54.103Z,70.85
